createdAt,value
2023-05-10T00:00:04.350Z,143.81
2023-05-10T00:01:04.388Z,142.34
2023-05-10T00:02:04.457Z,143.59
2023-05-10T00:03:04.444Z,144.70
2023-05-10T00:04:04.452Z,145.42
2023-05-10T00:05:04.446Z,143.66
2023-05-10T00:06:04.492Z,144.69
2023-05-10T00:07:04.584Z,144.07
2023-05-10T00:08:04.586Z,146.53
2023-05-10T00:09:04.619Z,144.93
2023-05-10T00:10:04.642Z,144.80
2023-05-10T00:11:04.699Z,142.82
2023-05-10T00:12:04.708Z,144.45
2023-05-10T00:13:04.742Z,144.13
2023-05-10T00:14:04.746Z,148.76
2023-05-10T00:15:04.832Z,147.41
2023-05-10T00:16:04.880Z,145.99
2023-05-10T00:17:04.860Z,143.01
2023-05-10T00:18:04.918Z,144.41
2023-05-10T00:19:04.903Z,147.08
2023-05-10T00:20:04.945Z,145.94
2023-05-10T00:21:05.034Z,148.73
2023-05-10T00:22:05.027Z,144.30
2023-05-10T00:23:05.125Z,144.88
2023-05-10T00:24:05.108Z,148.24
2023-05-10T00:25:05.148Z,147.38
2023-05-10T00:26:05.177Z,147.22
2023-05-10T00:27:05.212Z,145.16
2023-05-10T00:28:05.237Z,145.11
2023-05-10T00:29:05.286Z,144.57
2023-05-10T00:30:05.353Z,147.56
2023-05-10T00:31:05.364Z,147.89
2023-05-10T00:32:05.436Z,148.85
2023-05-10T00:33:05.517Z,148.49
2023-05-10T00:34:05.480Z,147.75
2023-05-10T00:35:05.526Z,147.97
2023-05-10T00:36:05.592Z,146.51
2023-05-10T00:37:05.566Z,147.91
2023-05-10T00:38:05.617Z,149.45
2023-05-10T00:39:05.665Z,146.66
2023-05-10T00:40:05.713Z,146.68
2023-05-10T00:41:05.771Z,146.49
2023-05-10T00:42:05.786Z,148.88
2023-05-10T00:43:05.862Z,146.96
2023-05-10T00:44:05.912Z,146.58
2023-05-10T00:45:05.904Z,147.96
2023-05-10T00:46:06.001Z,147.11
2023-05-10T00:47:06.004Z,144.45
2023-05-10T00:48:06.118Z,148.16
2023-05-10T00:49:06.099Z,147.42
2023-05-10T00:50:06.137Z,150.01
2023-05-10T00:51:06.183Z,149.07
2023-05-10T00:52:06.216Z,147.73
2023-05-10T00:53:06.219Z,148.21
2023-05-10T00:54:06.282Z,150.82
2023-05-10T00:55:06.363Z,146.83
2023-05-10T00:56:06.379Z,148.38
2023-05-10T00:57:06.409Z,149.02
2023-05-10T00:58:06.461Z,148.46
2023-05-10T00:59:06.472Z,148.97
2023-05-10T01:00:06.531Z,150.15
2023-05-10T01:01:06.670Z,150.13
2023-05-10T01:02:06.611Z,149.87
2023-05-10T01:03:06.725Z,148.76
2023-05-10T01:04:06.654Z,149.93
2023-05-10T01:05:06.752Z,148.01
2023-05-10T01:06:06.755Z,151.57
2023-05-10T01:07:06.832Z,151.03
2023-05-10T01:08:06.843Z,149.30
2023-05-10T01:09:06.959Z,151.08
2023-05-10T01:10:06.922Z,151.97
2023-05-10T01:11:06.973Z,150.83
2023-05-10T01:12:07.035Z,148.62
2023-05-10T01:13:07.019Z,148.95
2023-05-10T01:14:07.087Z,147.58
2023-05-10T01:15:07.103Z,150.41
2023-05-10T01:16:07.188Z,151.76
2023-05-10T01:17:07.216Z,151.15
2023-05-10T01:18:07.213Z,150.11
2023-05-10T01:19:07.260Z,145.91
2023-05-10T01:20:07.340Z,149.76
2023-05-10T01:21:07.398Z,151.18
2023-05-10T01:22:07.389Z,151.59
2023-05-10T01:23:07.459Z,153.66
2023-05-10T01:24:07.504Z,152.31
2023-05-10T01:25:07.506Z,152.22
2023-05-10T01:26:07.578Z,151.58
2023-05-10T01:27:07.622Z,149.23
2023-05-10T01:28:07.673Z,152.61
2023-05-10T01:29:07.718Z,151.17
2023-05-10T01:30:15.681Z,153.99
2023-05-10T01:31:08.800Z,154.14
2023-05-10T01:32:07.736Z,152.81
2023-05-10T01:33:07.703Z,154.35
2023-05-10T01:34:07.738Z,155.37
2023-05-10T01:35:07.721Z,153.64
2023-05-10T01:36:07.727Z,153.75
2023-05-10T01:37:07.688Z,157.56
2023-05-10T01:38:07.713Z,150.29
2023-05-10T01:39:07.680Z,151.88
2023-05-10T01:40:07.652Z,153.98
2023-05-10T01:41:07.700Z,153.36
2023-05-10T01:42:07.656Z,152.97
2023-05-10T01:43:07.660Z,154.12
2023-05-10T01:44:07.707Z,152.65
2023-05-10T01:45:07.791Z,155.38
2023-05-10T01:46:07.781Z,154.20
2023-05-10T01:47:07.827Z,156.55
2023-05-10T01:48:07.981Z,154.34
2023-05-10T01:49:07.910Z,154.28
2023-05-10T01:50:07.916Z,152.91
2023-05-10T01:51:08.004Z,154.83
2023-05-10T01:52:08.076Z,155.20
2023-05-10T01:53:08.133Z,152.54
2023-05-10T01:54:08.110Z,152.40
2023-05-10T01:55:08.194Z,154.23
2023-05-10T01:56:08.261Z,153.82
2023-05-10T01:57:08.308Z,154.78
2023-05-10T01:58:08.306Z,154.97
2023-05-10T01:59:08.544Z,155.68
2023-05-10T02:00:08.386Z,155.38
2023-05-10T02:01:08.464Z,156.82
2023-05-10T02:02:08.471Z,153.11
2023-05-10T02:03:08.675Z,156.01
2023-05-10T02:04:08.776Z,156.19
2023-05-10T02:05:08.622Z,158.09
2023-05-10T02:06:08.676Z,156.27
2023-05-10T02:07:08.711Z,155.04
2023-05-10T02:08:08.785Z,156.91
2023-05-10T02:09:08.855Z,155.28
2023-05-10T02:10:08.876Z,155.32
2023-05-10T02:11:08.924Z,156.65
2023-05-10T02:12:08.969Z,157.59
2023-05-10T02:13:09.169Z,155.45
2023-05-10T02:14:09.055Z,156.58
2023-05-10T02:15:09.083Z,157.05
2023-05-10T02:16:09.187Z,158.67
2023-05-10T02:17:09.186Z,154.57
2023-05-10T02:18:09.274Z,156.78
2023-05-10T02:19:09.305Z,159.22
2023-05-10T02:20:09.375Z,158.11
2023-05-10T02:21:09.401Z,155.49
2023-05-10T02:22:09.477Z,155.96
2023-05-10T02:23:09.501Z,157.52
2023-05-10T02:24:09.598Z,160.93
2023-05-10T02:25:09.745Z,156.99
2023-05-10T02:26:09.624Z,156.75
2023-05-10T02:27:09.704Z,157.24
2023-05-10T02:28:09.757Z,157.88
2023-05-10T02:29:09.823Z,153.91
2023-05-10T02:30:09.876Z,159.15
2023-05-10T02:31:09.878Z,160.00
2023-05-10T02:32:10.013Z,157.42
2023-05-10T02:33:09.980Z,163.20
2023-05-10T02:34:10.019Z,157.31
2023-05-10T02:35:10.064Z,158.40
2023-05-10T02:36:10.138Z,160.45
2023-05-10T02:37:10.249Z,157.32
2023-05-10T02:38:10.306Z,156.18
2023-05-10T02:39:10.292Z,164.21
2023-05-10T02:40:10.408Z,164.45
2023-05-10T02:41:10.413Z,159.34
2023-05-10T02:42:10.472Z,159.97
2023-05-10T02:43:10.504Z,162.08
2023-05-10T02:44:10.587Z,165.94
2023-05-10T02:45:10.651Z,162.81
2023-05-10T02:46:10.765Z,159.77
2023-05-10T02:47:10.734Z,159.27
2023-05-10T02:48:10.848Z,160.76
2023-05-10T02:49:10.816Z,160.73
2023-05-10T02:50:10.886Z,155.34
2023-05-10T02:51:10.940Z,164.04
2023-05-10T02:52:10.985Z,160.04
2023-05-10T02:53:11.059Z,158.91
2023-05-10T02:54:11.091Z,161.91
2023-05-10T02:55:11.167Z,163.04
2023-05-10T02:56:11.178Z,159.91
2023-05-10T02:57:11.285Z,161.19
2023-05-10T02:58:11.285Z,162.66
2023-05-10T02:59:11.324Z,164.18
2023-05-10T03:00:11.405Z,159.83
2023-05-10T03:01:11.497Z,163.86
2023-05-10T03:02:11.519Z,167.50
2023-05-10T03:03:11.586Z,160.49
2023-05-10T03:04:11.669Z,160.39
2023-05-10T03:05:11.669Z,161.34
2023-05-10T03:06:11.754Z,162.57
2023-05-10T03:07:11.825Z,163.16
2023-05-10T03:08:11.882Z,161.47
2023-05-10T03:09:11.906Z,157.59
2023-05-10T03:10:11.991Z,164.36
2023-05-10T03:11:12.041Z,160.40
2023-05-10T03:12:12.211Z,161.14
2023-05-10T03:13:12.215Z,159.89
2023-05-10T03:14:12.141Z,166.03
2023-05-10T03:15:12.225Z,160.24
2023-05-10T03:16:12.288Z,162.47
2023-05-10T03:17:12.339Z,163.21
2023-05-10T03:18:12.392Z,164.01
2023-05-10T03:19:12.461Z,162.22
2023-05-10T03:20:12.461Z,162.37
2023-05-10T03:21:12.525Z,164.08
2023-05-10T03:22:12.574Z,168.55
2023-05-10T03:23:12.621Z,165.24
2023-05-10T03:24:12.709Z,165.29
2023-05-10T03:25:12.740Z,163.90
2023-05-10T03:26:12.820Z,163.55
2023-05-10T03:27:12.852Z,163.20
2023-05-10T03:28:12.926Z,163.41
2023-05-10T03:29:12.943Z,159.26
2023-05-10T03:30:13.054Z,164.50
2023-05-10T03:31:13.085Z,164.15
2023-05-10T03:32:13.109Z,161.73
2023-05-10T03:33:13.170Z,170.01
2023-05-10T03:34:13.192Z,165.08
2023-05-10T03:35:13.285Z,164.22
2023-05-10T03:36:13.364Z,163.73
2023-05-10T03:37:13.462Z,164.44
2023-05-10T03:38:13.442Z,167.12
2023-05-10T03:39:13.523Z,165.30
2023-05-10T03:40:13.559Z,163.05
2023-05-10T03:41:13.641Z,170.20
2023-05-10T03:42:13.700Z,160.75
2023-05-10T03:43:13.753Z,165.52
2023-05-10T03:44:13.792Z,163.35
2023-05-10T03:45:13.866Z,163.90
2023-05-10T03:46:13.911Z,163.05
2023-05-10T03:47:13.931Z,168.44
2023-05-10T03:48:14.034Z,161.04
2023-05-10T03:49:14.060Z,161.92
2023-05-10T03:50:14.239Z,170.13
2023-05-10T03:51:14.217Z,168.27
2023-05-10T03:52:14.265Z,166.59
2023-05-10T03:53:14.327Z,164.66
2023-05-10T03:54:14.336Z,166.32
2023-05-10T03:55:14.414Z,167.69
2023-05-10T03:56:14.445Z,162.70
2023-05-10T03:57:14.526Z,162.78
2023-05-10T03:58:14.583Z,169.73
2023-05-10T03:59:14.629Z,168.22
2023-05-10T04:00:14.877Z,169.64
2023-05-10T04:01:14.800Z,166.73
2023-05-10T04:02:14.859Z,167.34
2023-05-10T04:03:14.965Z,165.03
2023-05-10T04:04:14.964Z,170.24
2023-05-10T04:05:14.959Z,170.86
2023-05-10T04:06:15.067Z,162.67
2023-05-10T04:07:15.075Z,159.35
2023-05-10T04:08:15.156Z,156.25
2023-05-10T04:09:15.188Z,145.93
2023-05-10T04:10:15.365Z,144.04
2023-05-10T04:11:15.282Z,146.31
2023-05-10T04:12:15.384Z,142.92
2023-05-10T04:13:15.392Z,140.84
2023-05-10T04:14:15.457Z,145.64
2023-05-10T04:15:15.530Z,134.35
2023-05-10T04:16:15.613Z,139.43
2023-05-10T04:17:15.717Z,127.94
2023-05-10T04:18:15.736Z,135.13
2023-05-10T04:19:15.808Z,136.03
2023-05-10T04:20:16.180Z,126.03
2023-05-10T04:21:15.846Z,122.26
2023-05-10T04:22:15.932Z,132.59
2023-05-10T04:23:15.979Z,126.52
2023-05-10T04:24:16.027Z,131.29
2023-05-10T04:25:16.125Z,125.37
2023-05-10T04:26:16.156Z,126.62
2023-05-10T04:27:16.206Z,121.78
2023-05-10T04:28:16.202Z,117.83
2023-05-10T04:29:16.309Z,116.73
2023-05-10T04:30:16.409Z,121.35
2023-05-10T04:31:16.315Z,118.70
2023-05-10T04:32:16.349Z,114.69
2023-05-10T04:33:16.447Z,111.53
2023-05-10T04:34:16.353Z,115.08
2023-05-10T04:35:16.417Z,116.62
2023-05-10T04:36:16.468Z,111.84
2023-05-10T04:37:16.469Z,108.96
2023-05-10T04:38:16.489Z,108.29
2023-05-10T04:39:16.491Z,113.34
2023-05-10T04:40:16.592Z,114.20
2023-05-10T04:41:16.446Z,124.00
2023-05-10T04:42:16.477Z,125.27
2023-05-10T04:43:16.478Z,111.82
2023-05-10T04:44:16.476Z,114.47
2023-05-10T04:45:16.492Z,113.06
2023-05-10T04:46:16.571Z,114.93
2023-05-10T04:47:16.500Z,115.96
2023-05-10T04:48:16.543Z,118.54
2023-05-10T04:49:16.575Z,119.39
2023-05-10T04:50:16.822Z,113.43
2023-05-10T04:51:16.670Z,119.48
2023-05-10T04:52:16.669Z,115.11
2023-05-10T04:53:16.760Z,119.28
2023-05-10T04:54:16.787Z,126.59
2023-05-10T04:55:16.838Z,121.82
2023-05-10T04:56:16.858Z,121.23
2023-05-10T04:57:16.916Z,125.39
2023-05-10T04:58:16.983Z,119.35
2023-05-10T04:59:16.966Z,119.38
2023-05-10T05:00:17.313Z,114.50
2023-05-10T05:01:17.079Z,113.42
2023-05-10T05:02:17.046Z,114.42
2023-05-10T05:03:17.113Z,100.98
2023-05-10T05:04:17.032Z,100.65
2023-05-10T05:05:17.004Z,99.34
2023-05-10T05:06:17.004Z,95.78
2023-05-10T05:07:17.010Z,98.90
2023-05-10T05:08:17.050Z,97.07
2023-05-10T05:09:17.058Z,91.67
2023-05-10T05:10:17.182Z,97.17
2023-05-10T05:11:17.067Z,93.37
2023-05-10T05:12:17.067Z,99.57
2023-05-10T05:13:17.094Z,100.46
2023-05-10T05:14:17.097Z,101.79
2023-05-10T05:15:17.100Z,101.99
2023-05-10T05:16:17.185Z,97.54
2023-05-10T05:17:17.130Z,99.20
2023-05-10T05:18:17.177Z,97.48
2023-05-10T05:19:17.158Z,98.34
2023-05-10T05:20:17.480Z,97.89
2023-05-10T05:21:17.194Z,97.64
2023-05-10T05:22:18.352Z,101.56
2023-05-10T05:23:17.202Z,101.29
2023-05-10T05:24:17.223Z,103.03
2023-05-10T05:25:17.276Z,95.91
2023-05-10T05:26:17.244Z,100.87
2023-05-10T05:27:17.263Z,96.43
2023-05-10T05:28:17.286Z,91.99
2023-05-10T05:29:17.365Z,92.96
2023-05-10T05:30:17.459Z,93.34
2023-05-10T05:31:17.382Z,91.10
2023-05-10T05:32:17.364Z,92.92
2023-05-10T05:33:17.391Z,100.24
2023-05-10T05:34:17.440Z,114.10
2023-05-10T05:35:17.647Z,119.94
2023-05-10T05:36:17.465Z,119.46
2023-05-10T05:37:17.464Z,120.81
2023-05-10T05:38:17.456Z,114.32
2023-05-10T05:39:17.515Z,131.40
2023-05-10T05:40:17.512Z,129.31
2023-05-10T05:41:17.536Z,134.99
2023-05-10T05:42:17.535Z,139.33
2023-05-10T05:43:17.559Z,129.52
2023-05-10T05:44:17.563Z,133.56
2023-05-10T05:45:17.865Z,136.09
2023-05-10T05:46:17.669Z,136.99
2023-05-10T05:47:17.635Z,135.94
2023-05-10T05:48:17.668Z,141.10
2023-05-10T05:49:17.639Z,142.41
2023-05-10T05:50:17.646Z,151.47
2023-05-10T05:51:17.693Z,163.94
2023-05-10T05:52:17.708Z,159.27
2023-05-10T05:53:17.665Z,174.99
2023-05-10T05:54:17.842Z,175.28
2023-05-10T05:55:18.039Z,171.71
2023-05-10T05:56:17.850Z,172.84
2023-05-10T05:57:17.896Z,178.48
2023-05-10T05:58:17.936Z,185.99
2023-05-10T05:59:17.909Z,186.74
2023-05-10T06:00:17.975Z,193.32
2023-05-10T06:01:18.216Z,195.40
2023-05-10T06:02:18.123Z,190.02
2023-05-10T06:03:18.270Z,214.50
2023-05-10T06:04:18.425Z,211.79
2023-05-10T06:05:18.355Z,208.33
2023-05-10T06:06:18.713Z,209.37
2023-05-10T06:07:18.375Z,207.63
2023-05-10T06:08:18.444Z,208.14
2023-05-10T06:09:18.696Z,209.62
2023-05-10T06:10:18.544Z,222.16
2023-05-10T06:11:18.673Z,225.86
2023-05-10T06:12:18.610Z,229.19
2023-05-10T06:13:18.707Z,237.80
2023-05-10T06:14:18.733Z,239.26
2023-05-10T06:15:18.967Z,242.26
2023-05-10T06:16:18.855Z,251.71
2023-05-10T06:17:18.844Z,246.77
2023-05-10T06:18:18.879Z,246.40
2023-05-10T06:19:18.868Z,245.28
2023-05-10T06:20:18.982Z,248.81
2023-05-10T06:21:18.977Z,247.05
2023-05-10T06:22:19.051Z,248.02
2023-05-10T06:23:19.045Z,245.47
2023-05-10T06:24:19.047Z,248.66
2023-05-10T06:25:19.281Z,250.21
2023-05-10T06:26:19.131Z,246.06
2023-05-10T06:27:19.173Z,244.65
2023-05-10T06:28:19.698Z,247.10
2023-05-10T06:29:19.193Z,247.96
2023-05-10T06:30:19.261Z,251.29
2023-05-10T06:31:19.276Z,249.70
2023-05-10T06:32:19.267Z,247.59
2023-05-10T06:33:19.316Z,248.84
2023-05-10T06:34:19.330Z,248.78
2023-05-10T06:35:19.506Z,249.37
2023-05-10T06:36:19.339Z,250.00
2023-05-10T06:37:19.342Z,248.61
2023-05-10T06:38:19.421Z,242.86
2023-05-10T06:39:21.252Z,238.49
2023-05-10T06:40:19.368Z,226.75
2023-05-10T06:41:19.421Z,212.41
2023-05-10T06:42:19.487Z,193.92
2023-05-10T06:43:19.638Z,186.15
2023-05-10T06:44:19.697Z,174.54
2023-05-10T06:45:19.966Z,164.48
2023-05-10T06:46:19.874Z,157.56
2023-05-10T06:47:19.682Z,149.88
2023-05-10T06:48:19.693Z,153.94
2023-05-10T06:49:20.198Z,148.83
2023-05-10T06:50:19.740Z,147.89
2023-05-10T06:51:19.748Z,148.85
2023-05-10T06:52:19.826Z,166.32
2023-05-10T06:53:19.699Z,165.01
2023-05-10T06:54:19.711Z,167.42
2023-05-10T06:55:19.815Z,177.74
2023-05-10T06:56:19.779Z,186.30
2023-05-10T06:57:31.153Z,187.98
2023-05-10T06:58:22.667Z,188.16
2023-05-10T06:59:19.917Z,189.58
2023-05-10T07:00:20.273Z,193.04
2023-05-10T07:01:20.039Z,199.23
2023-05-10T07:02:19.843Z,203.67
2023-05-10T07:03:20.801Z,205.17
2023-05-10T07:04:19.899Z,207.18
2023-05-10T07:05:20.086Z,208.40
2023-05-10T07:06:32.313Z,207.65
2023-05-10T07:07:20.771Z,207.84
2023-05-10T07:08:20.171Z,207.66
2023-05-10T07:09:20.181Z,202.96
2023-05-10T07:10:20.198Z,200.13
2023-05-10T07:11:19.801Z,200.56
2023-05-10T07:12:19.800Z,195.67
2023-05-10T07:13:19.890Z,202.02
2023-05-10T07:14:19.763Z,203.31
2023-05-10T07:15:20.224Z,201.47
2023-05-10T07:16:19.743Z,201.03
2023-05-10T07:17:19.789Z,203.26
2023-05-10T07:18:19.766Z,205.97
2023-05-10T07:19:19.778Z,206.05
2023-05-10T07:20:19.736Z,207.87
2023-05-10T07:21:19.757Z,210.48
2023-05-10T07:22:19.727Z,217.04
2023-05-10T07:23:19.710Z,224.75
2023-05-10T07:24:19.673Z,217.64
2023-05-10T07:25:19.713Z,215.92
2023-05-10T07:26:19.715Z,209.68
2023-05-10T07:27:19.739Z,208.22
2023-05-10T07:28:19.651Z,207.50
2023-05-10T07:29:19.688Z,206.25
2023-05-10T07:30:19.747Z,202.45
2023-05-10T07:31:19.686Z,191.21
2023-05-10T07:32:19.661Z,191.39
2023-05-10T07:33:19.815Z,197.57
2023-05-10T07:34:19.659Z,194.43
2023-05-10T07:35:19.706Z,188.39
2023-05-10T07:36:19.596Z,178.49
2023-05-10T07:37:19.612Z,185.82
2023-05-10T07:38:19.773Z,194.66
2023-05-10T07:39:26.486Z,196.29
2023-05-10T07:40:20.703Z,196.51
2023-05-10T07:41:19.737Z,195.30
2023-05-10T07:42:19.688Z,187.95
2023-05-10T07:43:19.653Z,186.91
2023-05-10T07:44:19.672Z,183.43
2023-05-10T07:45:19.669Z,175.99
2023-05-10T07:46:19.688Z,174.39
2023-05-10T07:47:19.627Z,166.50
2023-05-10T07:48:19.629Z,168.51
2023-05-10T07:49:19.641Z,165.24
2023-05-10T07:50:19.599Z,172.33
2023-05-10T07:51:19.647Z,167.25
2023-05-10T07:52:21.312Z,165.67
2023-05-10T07:53:19.668Z,167.11
2023-05-10T07:54:19.629Z,171.43
2023-05-10T07:55:19.639Z,176.00
2023-05-10T07:56:19.619Z,179.85
2023-05-10T07:57:19.636Z,186.74
2023-05-10T07:58:19.644Z,187.97
2023-05-10T07:59:19.600Z,192.75
2023-05-10T08:00:19.696Z,197.17
2023-05-10T08:01:19.620Z,195.81
2023-05-10T08:02:19.805Z,207.84
2023-05-10T08:03:19.774Z,208.64
2023-05-10T08:04:19.645Z,212.15
2023-05-10T08:05:19.765Z,210.43
2023-05-10T08:06:19.582Z,211.55
2023-05-10T08:07:19.558Z,219.63
2023-05-10T08:08:19.548Z,224.94
2023-05-10T08:09:19.526Z,229.48
2023-05-10T08:10:19.521Z,224.95
2023-05-10T08:11:19.546Z,227.41
2023-05-10T08:12:19.524Z,231.20
2023-05-10T08:13:19.910Z,231.48
2023-05-10T08:14:19.536Z,234.76
2023-05-10T08:15:19.659Z,231.65
2023-05-10T08:16:19.620Z,231.87
2023-05-10T08:17:20.271Z,231.93
2023-05-10T08:18:21.945Z,228.88
2023-05-10T08:19:19.482Z,234.50
2023-05-10T08:20:19.505Z,232.17
2023-05-10T08:21:19.564Z,222.99
2023-05-10T08:22:19.457Z,197.75
2023-05-10T08:23:19.524Z,181.86
2023-05-10T08:24:19.471Z,180.61
2023-05-10T08:25:19.854Z,180.46
2023-05-10T08:26:19.458Z,174.30
2023-05-10T08:27:19.465Z,182.78
2023-05-10T08:28:19.489Z,180.68
2023-05-10T08:29:19.389Z,184.11
2023-05-10T08:30:19.487Z,192.61
2023-05-10T08:31:19.528Z,188.22
2023-05-10T08:32:19.577Z,176.38
2023-05-10T08:33:19.540Z,166.70
2023-05-10T08:34:19.383Z,163.62
2023-05-10T08:35:19.370Z,158.68
2023-05-10T08:36:19.371Z,157.49
2023-05-10T08:37:19.344Z,158.65
2023-05-10T08:38:19.351Z,146.03
2023-05-10T08:39:29.805Z,147.93
2023-05-10T08:40:20.383Z,147.65
2023-05-10T08:41:19.311Z,148.73
2023-05-10T08:42:19.309Z,150.33
2023-05-10T08:43:19.347Z,157.09
2023-05-10T08:44:19.717Z,161.18
2023-05-10T08:45:19.549Z,164.84
2023-05-10T08:46:19.320Z,166.89
2023-05-10T08:47:19.486Z,172.35
2023-05-10T08:48:19.340Z,177.36
2023-05-10T08:49:19.389Z,172.59
2023-05-10T08:50:20.639Z,173.89
2023-05-10T08:51:19.774Z,180.10
2023-05-10T08:52:19.660Z,183.44
2023-05-10T08:53:19.505Z,185.55
2023-05-10T08:54:19.541Z,186.55
2023-05-10T08:55:19.586Z,190.03
2023-05-10T08:56:19.695Z,189.91
2023-05-10T08:57:19.709Z,189.43
2023-05-10T08:58:19.811Z,196.45
2023-05-10T08:59:19.621Z,205.04
2023-05-10T09:00:19.813Z,207.35
2023-05-10T09:01:19.646Z,214.33
2023-05-10T09:02:19.674Z,213.59
2023-05-10T09:03:19.786Z,217.01
2023-05-10T09:04:19.880Z,220.23
2023-05-10T09:05:19.974Z,223.02
2023-05-10T09:06:19.658Z,223.90
2023-05-10T09:07:19.654Z,222.26
2023-05-10T09:08:19.759Z,225.99
2023-05-10T09:09:19.685Z,229.27
2023-05-10T09:10:19.701Z,234.97
2023-05-10T09:11:19.689Z,235.84
2023-05-10T09:12:19.745Z,239.25
2023-05-10T09:13:19.750Z,239.46
2023-05-10T09:14:19.818Z,242.52
2023-05-10T09:15:19.992Z,243.39
2023-05-10T09:16:22.216Z,241.42
2023-05-10T09:17:19.967Z,247.73
2023-05-10T09:18:20.085Z,245.69
2023-05-10T09:19:19.879Z,249.42
2023-05-10T09:20:19.877Z,247.75
2023-05-10T09:21:19.933Z,248.57
2023-05-10T09:22:19.897Z,248.30
2023-05-10T09:23:19.952Z,249.15
2023-05-10T09:24:19.974Z,249.25
2023-05-10T09:25:19.973Z,250.00
2023-05-10T09:26:19.921Z,250.00
2023-05-10T09:27:19.839Z,248.40
2023-05-10T09:28:19.794Z,244.86
2023-05-10T09:29:19.802Z,247.26
2023-05-10T09:30:19.809Z,244.60
2023-05-10T09:31:19.869Z,240.23
2023-05-10T09:32:19.766Z,238.90
2023-05-10T09:33:19.841Z,243.86
2023-05-10T09:34:19.802Z,243.62
2023-05-10T09:35:19.788Z,242.53
2023-05-10T09:36:19.811Z,246.73
2023-05-10T09:37:19.754Z,249.88
2023-05-10T09:38:20.336Z,250.00
2023-05-10T09:39:19.738Z,249.21
2023-05-10T09:40:19.731Z,250.25
2023-05-10T09:41:19.745Z,249.14
2023-05-10T09:42:19.731Z,248.32
2023-05-10T09:43:19.723Z,249.47
2023-05-10T09:44:19.702Z,249.93
2023-05-10T09:45:19.710Z,246.57
2023-05-10T09:46:19.699Z,249.09
2023-05-10T09:47:19.690Z,247.50
2023-05-10T09:48:19.751Z,247.18
2023-05-10T09:49:19.769Z,247.69
2023-05-10T09:50:19.685Z,249.71
2023-05-10T09:51:19.660Z,248.48
2023-05-10T09:52:19.657Z,246.59
2023-05-10T09:53:19.677Z,247.02
2023-05-10T09:54:19.633Z,246.74
2023-05-10T09:55:19.622Z,244.40
2023-05-10T09:56:19.654Z,241.33
2023-05-10T09:57:20.056Z,241.09
2023-05-10T09:58:20.220Z,241.28
2023-05-10T09:59:19.612Z,238.13
2023-05-10T10:00:19.618Z,218.54
2023-05-10T10:01:19.737Z,206.07
2023-05-10T10:02:19.677Z,184.75
2023-05-10T10:03:19.728Z,181.91
2023-05-10T10:04:20.239Z,175.80
2023-05-10T10:05:19.859Z,163.73
2023-05-10T10:06:29.546Z,143.14
2023-05-10T10:07:20.908Z,142.15
2023-05-10T10:08:20.418Z,124.36
2023-05-10T10:09:20.002Z,109.51
2023-05-10T10:10:19.936Z,112.26
2023-05-10T10:11:19.829Z,105.53
2023-05-10T10:12:19.901Z,108.23
2023-05-10T10:13:19.850Z,110.76
2023-05-10T10:14:25.282Z,113.72
2023-05-10T10:15:19.999Z,109.09
2023-05-10T10:16:19.923Z,102.92
2023-05-10T10:17:19.895Z,98.85
2023-05-10T10:18:19.929Z,93.49
2023-05-10T10:19:19.956Z,85.53
2023-05-10T10:20:20.184Z,76.21
2023-05-10T10:21:20.033Z,74.65
2023-05-10T10:22:20.018Z,65.40
2023-05-10T10:23:20.122Z,62.10
2023-05-10T10:24:20.345Z,62.62
2023-05-10T10:25:20.248Z,58.09
2023-05-10T10:26:20.208Z,55.85
2023-05-10T10:27:20.306Z,49.70
2023-05-10T10:28:22.282Z,44.95
2023-05-10T10:29:20.443Z,38.82
2023-05-10T10:30:20.893Z,26.94
2023-05-10T10:31:20.537Z,29.89
2023-05-10T10:32:20.478Z,41.91
2023-05-10T10:33:28.362Z,47.24
2023-05-10T10:34:21.479Z,47.54
2023-05-10T10:35:20.785Z,49.18
2023-05-10T10:36:20.515Z,53.93
2023-05-10T10:37:20.507Z,61.13
2023-05-10T10:38:20.465Z,70.90
2023-05-10T10:39:20.432Z,73.40
2023-05-10T10:40:20.756Z,70.44
2023-05-10T10:41:20.494Z,72.00
2023-05-10T10:42:20.472Z,74.42
2023-05-10T10:43:20.465Z,82.92
2023-05-10T10:44:20.771Z,84.54
2023-05-10T10:45:20.484Z,89.64
2023-05-10T10:46:20.459Z,85.98
2023-05-10T10:47:20.453Z,98.26
2023-05-10T10:48:20.488Z,94.86
2023-05-10T10:49:20.581Z,97.08
2023-05-10T10:50:20.520Z,97.78
2023-05-10T10:51:20.522Z,106.77
2023-05-10T10:52:20.618Z,121.47
2023-05-10T10:53:20.566Z,128.10
2023-05-10T10:54:20.550Z,131.67
2023-05-10T10:55:20.708Z,126.43
2023-05-10T10:56:20.633Z,128.48
2023-05-10T10:57:20.573Z,123.22
2023-05-10T10:58:20.589Z,122.99
2023-05-10T10:59:20.595Z,122.66
2023-05-10T11:00:20.578Z,127.18
2023-05-10T11:01:20.737Z,132.25
2023-05-10T11:02:20.655Z,131.97
2023-05-10T11:03:20.704Z,132.07
2023-05-10T11:04:20.795Z,129.75
2023-05-10T11:05:20.784Z,132.17
2023-05-10T11:06:20.892Z,134.62
2023-05-10T11:07:21.009Z,129.39
2023-05-10T11:08:21.337Z,128.44
2023-05-10T11:09:21.011Z,120.94
2023-05-10T11:10:21.042Z,119.02
2023-05-10T11:11:21.315Z,122.76
2023-05-10T11:12:21.137Z,118.49
2023-05-10T11:13:21.254Z,125.06
2023-05-10T11:14:21.308Z,122.05
2023-05-10T11:15:21.325Z,119.83
2023-05-10T11:16:21.414Z,113.56
2023-05-10T11:17:21.776Z,108.26
2023-05-10T11:18:22.272Z,74.42
2023-05-10T11:19:21.404Z,50.83
2023-05-10T11:20:21.388Z,45.13
2023-05-10T11:21:21.438Z,36.10
2023-05-10T11:22:21.492Z,33.81
2023-05-10T11:23:21.542Z,28.91
2023-05-10T11:24:21.573Z,25.00
2023-05-10T11:25:21.569Z,25.00
2023-05-10T11:26:21.733Z,22.71
2023-05-10T11:27:21.601Z,28.82
2023-05-10T11:28:21.575Z,31.56
2023-05-10T11:29:21.722Z,24.72
2023-05-10T11:30:21.655Z,22.94
2023-05-10T11:31:21.826Z,24.08
2023-05-10T11:32:21.712Z,25.00
2023-05-10T11:33:21.832Z,24.00
2023-05-10T11:34:21.791Z,25.07
2023-05-10T11:35:21.915Z,29.39
2023-05-10T11:36:21.914Z,30.43
2023-05-10T11:37:21.952Z,38.39
2023-05-10T11:38:21.953Z,38.62
2023-05-10T11:39:22.030Z,28.56
2023-05-10T11:40:22.030Z,26.51
2023-05-10T11:41:22.043Z,25.86
2023-05-10T11:42:22.061Z,24.41
2023-05-10T11:43:22.116Z,26.25
2023-05-10T11:44:22.106Z,25.00
2023-05-10T11:45:22.107Z,26.26
2023-05-10T11:46:22.240Z,29.34
2023-05-10T11:47:22.191Z,25.81
2023-05-10T11:48:22.154Z,26.62
2023-05-10T11:49:22.249Z,28.62
2023-05-10T11:50:22.159Z,26.82
2023-05-10T11:51:22.154Z,25.00
2023-05-10T11:52:22.182Z,25.17
2023-05-10T11:53:23.266Z,26.71
2023-05-10T11:54:22.173Z,31.61
2023-05-10T11:55:22.172Z,32.70
2023-05-10T11:56:22.256Z,31.54
2023-05-10T11:57:22.208Z,28.56
2023-05-10T11:58:22.287Z,24.57
2023-05-10T11:59:22.374Z,27.65
2023-05-10T12:00:22.307Z,25.98
2023-05-10T12:01:22.301Z,26.89
2023-05-10T12:02:22.316Z,25.29
2023-05-10T12:03:22.410Z,40.25
2023-05-10T12:04:22.585Z,51.72
2023-05-10T12:05:22.429Z,62.04
2023-05-10T12:06:22.680Z,72.85
2023-05-10T12:07:22.465Z,87.79
2023-05-10T12:08:22.496Z,83.26
2023-05-10T12:09:35.444Z,83.16
2023-05-10T12:10:23.823Z,83.44
2023-05-10T12:11:22.459Z,85.46
2023-05-10T12:12:22.507Z,88.25
2023-05-10T12:13:22.482Z,95.69
2023-05-10T12:14:22.422Z,106.75
2023-05-10T12:15:22.476Z,110.62
2023-05-10T12:16:22.468Z,109.50
2023-05-10T12:17:22.444Z,123.17
2023-05-10T12:18:22.475Z,127.98
2023-05-10T12:19:22.483Z,131.65
2023-05-10T12:20:22.636Z,134.45
2023-05-10T12:21:22.631Z,136.68
2023-05-10T12:22:22.630Z,139.95
2023-05-10T12:23:22.693Z,134.47
2023-05-10T12:24:22.699Z,132.69
2023-05-10T12:25:22.808Z,132.97
2023-05-10T12:26:22.797Z,133.10
2023-05-10T12:27:22.863Z,139.85
2023-05-10T12:28:22.938Z,139.18
2023-05-10T12:29:22.925Z,141.85
2023-05-10T12:30:23.032Z,141.89
2023-05-10T12:31:23.100Z,141.31